Time;durP1;ratioP1;P1;durP2;ratioP2;P2;SDS_P1;SDS_P2;PMS_P1;PMS_P2;Temp;Humidity;BMP_temperature;BMP_pressure;BME280_temperature;BME280_humidity;BME280_pressure;Samples;Min_cycle;Max_cycle;Signal;HPM_P1;HPM_P2
2021/05/16 00:02:17;;;;;;;2.03;1.20;;;;;;;7.42;100.00;96959.56;5004313;28;20666;-71
2021/05/16 00:04:45;;;;;;;1.40;1.30;;;;;;;7.34;100.00;96962.19;4999734;28;20300;-71
2021/05/16 00:07:12;;;;;;;1.33;1.23;;;;;;;7.39;100.00;96962.53;4998605;28;20236;-68
2021/05/16 00:09:40;;;;;;;2.97;1.23;;;;;;;7.42;100.00;96958.72;5002340;28;20209;-71
2021/05/16 00:12:11;;;;;;;1.20;1.20;;;;;;;7.44;100.00;96960.19;4995238;28;20253;-71
2021/05/16 00:14:39;;;;;;;1.70;1.50;;;;;;;7.44;100.00;96962.00;4998487;28;20212;-71
2021/05/16 00:17:07;;;;;;;1.40;1.30;;;;;;;7.37;100.00;96975.03;4997873;28;20210;-69
2021/05/16 00:19:35;;;;;;;1.23;1.20;;;;;;;7.34;100.00;96978.00;5000621;28;20201;-71
2021/05/16 00:22:03;;;;;;;2.20;1.10;;;;;;;7.45;100.00;96982.09;5001265;28;20492;-71
2021/05/16 00:24:30;;;;;;;1.40;0.83;;;;;;;7.31;100.00;96981.81;5001339;28;20220;-71
2021/05/16 00:26:58;;;;;;;1.33;1.27;;;;;;;7.22;100.00;96983.63;4999480;28;20210;-71
2021/05/16 00:29:26;;;;;;;1.07;1.00;;;;;;;7.17;100.00;96982.47;5003413;28;20215;-71
2021/05/16 00:31:54;;;;;;;1.10;1.10;;;;;;;7.09;100.00;96978.06;4993782;28;20237;-70
2021/05/16 00:34:22;;;;;;;2.27;2.10;;;;;;;7.04;100.00;96980.38;5000285;28;20216;-70
2021/05/16 00:36:49;;;;;;;2.60;1.47;;;;;;;7.01;100.00;96989.44;5004355;28;20201;-71
2021/05/16 00:39:17;;;;;;;2.03;1.50;;;;;;;7.07;100.00;96993.22;4997993;28;20209;-70
2021/05/16 00:41:44;;;;;;;2.30;1.63;;;;;;;7.04;100.00;96989.09;5002946;28;20224;-71
2021/05/16 00:44:12;;;;;;;3.20;1.43;;;;;;;7.26;100.00;96994.69;4998592;28;20217;-71
2021/05/16 00:46:40;;;;;;;1.10;1.00;;;;;;;7.24;100.00;96996.66;4999215;28;20201;-70
2021/05/16 00:49:08;;;;;;;1.60;1.50;;;;;;;7.30;100.00;96989.88;5000420;28;20681;-70
2021/05/16 00:51:35;;;;;;;1.47;1.37;;;;;;;7.31;100.00;96996.78;5005546;28;20255;-71
2021/05/16 00:54:05;;;;;;;1.03;1.00;;;;;;;7.13;100.00;96989.91;5003927;28;20220;-71
2021/05/16 00:56:33;;;;;;;1.23;1.23;;;;;;;7.13;100.00;97000.44;5001006;28;20388;-71
2021/05/16 00:59:00;;;;;;;1.67;1.57;;;;;;;7.05;100.00;97001.28;4994953;28;20205;-70
2021/05/16 01:01:28;;;;;;;1.60;1.47;;;;;;;6.96;100.00;96997.00;4998014;28;20570;-70
2021/05/16 01:03:56;;;;;;;1.23;1.17;;;;;;;7.06;100.00;96999.47;4996973;28;20593;-70
2021/05/16 01:06:24;;;;;;;2.63;1.73;;;;;;;7.00;100.00;96993.06;4990853;28;20655;-70
2021/05/16 01:08:56;;;;;;;1.73;1.53;;;;;;;6.84;100.00;96998.34;5003262;28;20601;-70
2021/05/16 01:11:27;;;;;;;1.60;1.50;;;;;;;6.92;100.00;97004.41;4996002;28;20236;-70
2021/05/16 01:13:55;;;;;;;1.37;1.27;;;;;;;6.94;100.00;96997.16;4999038;28;20625;-70
2021/05/16 01:16:22;;;;;;;1.63;1.53;;;;;;;7.05;100.00;96989.94;5003145;28;20201;-71
2021/05/16 01:18:50;;;;;;;1.33;1.23;;;;;;;6.97;100.00;96984.66;4998580;28;20220;-70
2021/05/16 01:21:21;;;;;;;1.33;1.17;;;;;;;6.85;100.00;96985.00;4997166;28;20225;-70
2021/05/16 01:23:49;;;;;;;2.07;1.50;;;;;;;6.83;100.00;96988.78;5003192;28;20406;-71
2021/05/16 01:26:16;;;;;;;3.60;1.60;;;;;;;6.83;100.00;96991.44;5004316;28;20585;-71
2021/05/16 01:28:44;;;;;;;2.70;1.57;;;;;;;6.86;100.00;96999.81;4996409;28;20209;-69
2021/05/16 01:31:12;;;;;;;1.13;1.13;;;;;;;6.82;100.00;97001.13;4993698;28;20224;-71
2021/05/16 01:33:39;;;;;;;1.67;1.50;;;;;;;6.79;100.00;96993.56;4999174;28;20231;-70
2021/05/16 01:36:07;;;;;;;4.23;1.70;;;;;;;6.75;100.00;96992.25;4995535;28;20205;-71
2021/05/16 01:38:36;;;;;;;2.27;1.53;;;;;;;6.72;100.00;96997.84;5001504;28;20216;-71
2021/05/16 01:41:03;;;;;;;1.90;1.80;;;;;;;6.71;100.00;96994.38;5002061;28;20235;-70
2021/05/16 01:43:33;;;;;;;3.07;1.30;;;;;;;6.72;100.00;96992.56;4999602;28;20204;-71
2021/05/16 01:46:01;;;;;;;2.20;1.43;;;;;;;6.78;100.00;96995.34;5002340;28;20209;-71
2021/05/16 01:48:29;;;;;;;2.40;1.50;;;;;;;6.73;100.00;96989.75;5001494;28;20267;-71
2021/05/16 01:50:56;;;;;;;2.43;2.20;;;;;;;6.66;100.00;96992.25;5000342;28;20229;-70
2021/05/16 01:53:24;;;;;;;3.13;1.93;;;;;;;6.75;100.00;96995.69;5000314;28;20233;-70
2021/05/16 01:55:53;;;;;;;1.43;1.23;;;;;;;6.64;100.00;96994.22;5002602;28;20874;-71
2021/05/16 01:58:20;;;;;;;2.30;1.73;;;;;;;6.66;100.00;96994.88;4991803;28;20236;-70
2021/05/16 02:00:48;;;;;;;2.13;1.90;;;;;;;6.62;100.00;96992.72;4993455;28;20240;-71
2021/05/16 02:03:16;;;;;;;2.50;1.90;;;;;;;6.51;100.00;96993.84;4999580;28;20221;-70
2021/05/16 02:05:44;;;;;;;2.40;1.47;;;;;;;6.53;100.00;96999.78;4990944;28;20297;-71
2021/05/16 02:08:12;;;;;;;1.57;1.47;;;;;;;6.55;100.00;96989.09;4993415;28;20743;-69
2021/05/16 02:10:41;;;;;;;2.97;2.00;;;;;;;6.61;100.00;96989.25;4991347;28;20232;-71
2021/05/16 02:13:10;;;;;;;2.33;2.13;;;;;;;6.58;100.00;96981.69;5001043;28;20570;-70
2021/05/16 02:15:38;;;;;;;2.20;1.93;;;;;;;6.53;100.00;96983.97;5000144;28;20208;-70
2021/05/16 02:18:08;;;;;;;4.47;1.93;;;;;;;6.46;100.00;96977.72;5000174;28;20208;-71
2021/05/16 02:20:36;;;;;;;1.83;1.73;;;;;;;6.41;100.00;96983.47;4990562;28;20229;-70
2021/05/16 02:23:03;;;;;;;2.47;1.43;;;;;;;6.28;100.00;96970.81;4994691;28;20209;-71
2021/05/16 02:25:31;;;;;;;2.60;1.80;;;;;;;6.37;100.00;96985.63;4999814;28;20208;-70
2021/05/16 02:27:58;;;;;;;2.47;1.77;;;;;;;6.43;100.00;96978.06;5001320;28;20661;-70
2021/05/16 02:30:27;;;;;;;2.60;1.87;;;;;;;6.34;100.00;96993.84;5001949;28;20233;-70
2021/05/16 02:32:54;;;;;;;2.10;1.90;;;;;;;6.55;100.00;96989.91;5001798;28;20241;-70
2021/05/16 02:35:22;;;;;;;1.63;1.53;;;;;;;6.32;100.00;96985.28;4999992;28;20205;-70
2021/05/16 02:37:50;;;;;;;3.20;1.87;;;;;;;6.19;100.00;96990.19;4990102;28;20411;-70
2021/05/16 02:40:18;;;;;;;4.37;1.53;;;;;;;6.06;100.00;96994.09;4996578;28;20205;-70
2021/05/16 02:42:45;;;;;;;2.07;1.70;;;;;;;5.93;100.00;96997.16;5001982;28;20236;-71
2021/05/16 02:45:14;;;;;;;2.37;1.93;;;;;;;6.13;100.00;96999.56;5002374;28;20205;-68
2021/05/16 02:47:42;;;;;;;1.97;1.67;;;;;;;5.94;100.00;97001.41;4996137;28;20201;-70
2021/05/16 02:50:11;;;;;;;2.50;1.63;;;;;;;5.91;100.00;97004.38;4996117;28;20205;-70
2021/05/16 02:52:39;;;;;;;1.87;1.63;;;;;;;5.94;100.00;97003.25;4999659;28;20320;-70
2021/05/16 02:55:07;;;;;;;2.70;1.90;;;;;;;5.86;100.00;97013.69;4991812;28;20209;-68
2021/05/16 02:57:35;;;;;;;2.27;1.70;;;;;;;5.80;100.00;97007.28;4998255;28;20596;-70
2021/05/16 03:00:04;;;;;;;2.67;1.87;;;;;;;5.78;100.00;97009.25;5002235;28;20213;-70
2021/05/16 03:02:31;;;;;;;2.00;1.90;;;;;;;5.79;100.00;97009.09;5000703;28;20243;-69
2021/05/16 03:04:59;;;;;;;2.23;1.97;;;;;;;5.74;100.00;97008.75;4997215;28;20566;-69
2021/05/16 03:07:27;;;;;;;2.93;2.77;;;;;;;5.71;100.00;97000.34;4991034;28;20336;-70
2021/05/16 03:09:55;;;;;;;2.50;2.30;;;;;;;5.69;100.00;97003.13;4996707;28;20209;-69
2021/05/16 03:12:23;;;;;;;2.27;2.00;;;;;;;5.76;100.00;96995.44;4993091;28;20237;-71
2021/05/16 03:14:50;;;;;;;3.37;2.10;;;;;;;5.84;100.00;96999.91;5001570;28;20593;-70
2021/05/16 03:17:18;;;;;;;2.73;2.03;;;;;;;5.78;100.00;96981.16;5001802;28;20209;-71
2021/05/16 03:19:45;;;;;;;3.17;1.80;;;;;;;5.77;100.00;96987.38;5000409;28;20480;-71
2021/05/16 03:22:14;;;;;;;3.40;2.37;;;;;;;5.82;100.00;96993.97;4998142;28;20225;-68
2021/05/16 03:24:41;;;;;;;2.07;1.63;;;;;;;5.90;100.00;96999.28;5001797;28;20205;-71
2021/05/16 03:27:09;;;;;;;2.67;2.17;;;;;;;5.88;100.00;96994.16;4999399;28;20226;-71
2021/05/16 03:29:36;;;;;;;4.70;1.67;;;;;;;5.85;100.00;96996.28;4996382;28;20209;-71
2021/05/16 03:32:04;;;;;;;9.27;3.30;;;;;;;5.82;100.00;96994.81;4997028;28;20232;-70
2021/05/16 03:34:32;;;;;;;1.53;1.47;;;;;;;5.93;100.00;96998.97;4997591;28;20213;-71
2021/05/16 03:37:00;;;;;;;5.33;1.93;;;;;;;5.83;100.00;97001.72;4992977;28;20213;-70
2021/05/16 03:39:28;;;;;;;1.93;1.47;;;;;;;5.92;100.00;97005.22;4992983;28;20209;-69
2021/05/16 03:41:56;;;;;;;3.33;1.93;;;;;;;5.90;100.00;97002.72;4998683;28;20712;-70
2021/05/16 03:44:24;;;;;;;2.27;1.70;;;;;;;5.82;100.00;96993.97;5000798;28;20205;-70
2021/05/16 03:46:52;;;;;;;1.93;1.67;;;;;;;6.01;100.00;96996.38;4996074;28;20216;-71
2021/05/16 03:49:19;;;;;;;2.20;2.00;;;;;;;6.02;100.00;96999.81;4995408;28;20421;-70
2021/05/16 03:51:47;;;;;;;2.73;1.67;;;;;;;6.13;100.00;97010.06;5002283;28;20229;-72
2021/05/16 03:54:15;;;;;;;1.73;1.63;;;;;;;6.21;100.00;97004.84;5001479;28;20634;-69
2021/05/16 03:56:44;;;;;;;2.07;1.90;;;;;;;6.42;100.00;97005.38;5001685;28;20208;-71
2021/05/16 03:59:11;;;;;;;2.87;2.00;;;;;;;6.41;100.00;97007.16;5003806;28;20265;-71
2021/05/16 04:01:39;;;;;;;1.90;1.80;;;;;;;6.49;100.00;97011.63;4996258;28;20325;-71
2021/05/16 04:04:06;;;;;;;1.80;1.70;;;;;;;6.53;100.00;97009.50;5001586;28;20200;-70
2021/05/16 04:06:34;;;;;;;2.93;1.80;;;;;;;6.60;100.00;97006.03;5004371;28;20705;-71
2021/05/16 04:09:01;;;;;;;2.17;1.80;;;;;;;6.65;100.00;97005.56;5003619;28;20243;-71
2021/05/16 04:11:28;;;;;;;2.20;1.87;;;;;;;6.69;100.00;97019.22;5003361;28;20228;-70
2021/05/16 04:13:57;;;;;;;2.63;1.77;;;;;;;6.78;100.00;97019.03;5004143;28;20240;-71
2021/05/16 04:16:24;;;;;;;2.23;2.07;;;;;;;6.85;100.00;97013.16;4995881;28;20709;-71
2021/05/16 04:18:52;;;;;;;1.60;1.50;;;;;;;6.90;100.00;97011.66;4998572;28;20209;-70
2021/05/16 04:21:19;;;;;;;1.97;1.87;;;;;;;6.92;100.00;97022.03;5000383;28;20236;-73
2021/05/16 04:23:47;;;;;;;1.87;1.77;;;;;;;7.00;100.00;97023.81;5004125;28;20209;-72
2021/05/16 04:26:15;;;;;;;1.90;1.80;;;;;;;6.99;100.00;97025.66;5001581;28;20213;-74
2021/05/16 04:28:42;;;;;;;1.80;1.70;;;;;;;7.16;100.00;97017.72;5005028;28;20220;-76
2021/05/16 04:31:10;;;;;;;5.07;1.70;;;;;;;7.29;100.00;97020.69;5006504;28;20739;-74
2021/05/16 04:33:38;;;;;;;2.03;1.83;;;;;;;7.31;100.00;97023.97;5009997;28;20664;-75
2021/05/16 04:36:05;;;;;;;2.70;1.90;;;;;;;7.21;100.00;97018.88;5006096;28;20224;-76
2021/05/16 04:38:33;;;;;;;2.07;1.87;;;;;;;7.28;100.00;97021.69;5004459;28;20208;-75
2021/05/16 04:41:00;;;;;;;2.07;1.40;;;;;;;7.43;100.00;97027.09;5003702;28;20231;-75
2021/05/16 04:43:27;;;;;;;1.40;1.40;;;;;;;7.39;100.00;97023.97;5002220;28;20200;-76
2021/05/16 04:45:55;;;;;;;2.23;1.80;;;;;;;7.41;100.00;97028.25;5004286;28;20219;-75
2021/05/16 04:48:23;;;;;;;3.17;1.80;;;;;;;7.56;100.00;97025.75;5003793;28;20209;-75
2021/05/16 04:50:51;;;;;;;1.50;1.33;;;;;;;7.53;100.00;97026.88;5003364;28;20225;-75
2021/05/16 04:53:18;;;;;;;2.40;1.47;;;;;;;7.56;100.00;97017.84;5005681;28;20585;-75
2021/05/16 04:55:46;;;;;;;2.03;1.70;;;;;;;7.86;100.00;97026.00;5003857;28;20212;-75
2021/05/16 04:58:13;;;;;;;1.90;1.60;;;;;;;7.82;100.00;97026.34;5008042;28;20215;-71
2021/05/16 05:00:41;;;;;;;2.03;1.70;;;;;;;7.90;100.00;97030.72;5003996;28;20240;-74
2021/05/16 05:03:08;;;;;;;2.80;1.50;;;;;;;8.09;100.00;97026.88;5006649;28;20212;-74
2021/05/16 05:05:37;;;;;;;1.90;1.50;;;;;;;7.89;100.00;97021.19;5006505;28;20209;-73
2021/05/16 05:08:04;;;;;;;1.77;1.67;;;;;;;8.07;100.00;97020.13;5008056;28;20979;-74
2021/05/16 05:10:32;;;;;;;2.27;1.70;;;;;;;8.07;100.00;97020.13;5004548;28;20209;-75
2021/05/16 05:12:59;;;;;;;3.80;1.53;;;;;;;7.96;100.00;97019.53;5005713;28;20251;-73
2021/05/16 05:15:27;;;;;;;1.70;1.60;;;;;;;8.08;100.00;97024.41;5003451;28;20221;-74
2021/05/16 05:17:54;;;;;;;2.23;1.70;;;;;;;7.95;100.00;97024.97;5001026;28;20205;-74
2021/05/16 05:20:23;;;;;;;2.40;2.20;;;;;;;7.95;100.00;97022.31;5001913;28;20391;-71
2021/05/16 05:22:52;;;;;;;1.87;1.77;;;;;;;7.76;100.00;97020.91;5003870;28;20208;-74
2021/05/16 05:25:20;;;;;;;2.10;1.70;;;;;;;7.75;100.00;97017.44;5001856;28;20209;-67
2021/05/16 05:27:47;;;;;;;2.73;1.80;;;;;;;7.75;100.00;97022.69;4999074;28;20217;-67
2021/05/16 05:30:15;;;;;;;2.43;1.70;;;;;;;7.96;100.00;97022.16;5001707;28;20677;-69
2021/05/16 05:32:43;;;;;;;3.27;2.40;;;;;;;7.85;100.00;97019.88;5003249;28;20228;-71
2021/05/16 05:35:11;;;;;;;2.23;1.87;;;;;;;7.87;100.00;97023.16;5001579;28;20216;-68
2021/05/16 05:37:38;;;;;;;1.70;1.60;;;;;;;8.02;100.00;97033.03;5002682;28;20240;-67
2021/05/16 05:40:08;;;;;;;2.83;1.70;;;;;;;7.96;100.00;97032.72;5002934;28;20527;-70
2021/05/16 05:42:35;;;;;;;4.17;2.20;;;;;;;8.03;100.00;97032.84;5002599;28;20315;-71
2021/05/16 05:45:04;;;;;;;1.50;1.43;;;;;;;7.89;100.00;97034.38;5003926;28;20209;-70
2021/05/16 05:47:31;;;;;;;1.27;1.17;;;;;;;7.90;100.00;97022.00;5002497;28;20855;-70
2021/05/16 05:49:59;;;;;;;2.13;1.90;;;;;;;8.02;100.00;97028.53;5003687;28;20213;-70
2021/05/16 05:52:26;;;;;;;5.30;1.83;;;;;;;8.13;100.00;97037.91;5002747;28;20228;-74
2021/05/16 05:54:54;;;;;;;3.83;1.43;;;;;;;8.19;100.00;97037.22;5003160;28;20244;-74
2021/05/16 05:57:22;;;;;;;4.70;2.10;;;;;;;8.31;100.00;97045.56;5001476;28;20215;-74
2021/05/16 05:59:50;;;;;;;2.10;2.00;;;;;;;8.38;100.00;97046.53;5004872;28;20204;-73
2021/05/16 06:02:17;;;;;;;3.03;1.90;;;;;;;8.63;100.00;97038.50;4995114;28;20247;-75
2021/05/16 06:04:45;;;;;;;3.90;1.60;;;;;;;8.91;100.00;97035.34;5005243;28;20361;-72
2021/05/16 06:07:13;;;;;;;1.53;1.43;;;;;;;8.86;100.00;97036.84;5000354;28;20216;-68
2021/05/16 06:09:40;;;;;;;2.30;1.77;;;;;;;8.81;100.00;97032.94;5002313;28;20672;-68
2021/05/16 06:12:09;;;;;;;2.10;2.00;;;;;;;8.93;100.00;97037.78;5002570;28;20499;-67
2021/05/16 06:14:37;;;;;;;2.20;1.93;;;;;;;8.93;100.00;97032.50;5003133;28;20228;-68
2021/05/16 06:17:05;;;;;;;1.70;1.60;;;;;;;9.04;100.00;97036.56;5002333;28;20205;-68
2021/05/16 06:19:32;;;;;;;3.23;1.60;;;;;;;9.26;100.00;97029.59;5001847;28;20219;-68
2021/05/16 06:22:00;;;;;;;2.43;1.67;;;;;;;9.37;100.00;97026.50;5001673;28;21009;-69
2021/05/16 06:24:28;;;;;;;1.90;1.77;;;;;;;9.35;100.00;97025.84;5001772;28;20306;-68
2021/05/16 06:26:56;;;;;;;1.60;1.50;;;;;;;9.48;100.00;97029.72;5002143;28;20205;-69
2021/05/16 06:29:23;;;;;;;4.57;1.73;;;;;;;9.59;98.68;97031.09;5002784;28;20729;-69
2021/05/16 06:31:51;;;;;;;1.80;1.70;;;;;;;9.51;98.42;97032.81;5002732;28;20250;-68
2021/05/16 06:34:19;;;;;;;1.70;1.60;;;;;;;9.51;98.40;97038.09;5001440;28;20225;-68
2021/05/16 06:36:46;;;;;;;1.90;1.80;;;;;;;9.50;95.94;97040.94;5002856;28;20204;-68
2021/05/16 06:39:14;;;;;;;1.07;1.07;;;;;;;9.35;99.58;97043.56;5002282;28;20209;-69
2021/05/16 06:41:41;;;;;;;1.40;1.30;;;;;;;9.57;97.89;97039.22;5002473;28;20228;-68
2021/05/16 06:44:09;;;;;;;1.70;1.60;;;;;;;9.79;95.07;97036.66;5002145;28;20200;-69
2021/05/16 06:46:36;;;;;;;1.47;1.20;;;;;;;9.83;97.70;97040.56;4999684;28;20428;-69
2021/05/16 06:49:04;;;;;;;5.53;1.90;;;;;;;10.02;94.46;97033.91;5001117;28;20224;-68
2021/05/16 06:51:32;;;;;;;1.83;1.50;;;;;;;10.17;91.59;97039.19;5005420;28;20229;-68
2021/05/16 06:53:59;;;;;;;2.57;1.50;;;;;;;10.42;90.48;97036.25;4999825;28;20255;-69
2021/05/16 06:56:27;;;;;;;2.77;1.33;;;;;;;10.65;89.55;97033.44;5002002;28;20684;-68
2021/05/16 06:58:54;;;;;;;3.17;1.87;;;;;;;10.33;91.87;97032.84;5003852;28;20219;-69
2021/05/16 07:01:22;;;;;;;1.93;1.23;;;;;;;10.60;91.00;97033.19;4999079;28;20236;-68
2021/05/16 07:03:50;;;;;;;1.60;1.50;;;;;;;10.74;92.29;97034.16;5002436;28;20197;-70
2021/05/16 07:06:18;;;;;;;2.40;1.97;;;;;;;11.11;88.80;97032.25;5004614;28;20216;-70
2021/05/16 07:08:47;;;;;;;2.20;1.73;;;;;;;11.38;84.88;97031.63;5002407;28;20752;-70
2021/05/16 07:11:14;;;;;;;2.07;1.97;;;;;;;11.26;88.09;97031.34;5002126;28;20228;-71
2021/05/16 07:13:42;;;;;;;3.20;1.40;;;;;;;11.24;87.86;97026.25;5002306;28;20232;-70
2021/05/16 07:16:11;;;;;;;1.73;1.63;;;;;;;11.50;87.38;97027.44;5001544;28;20209;-72
2021/05/16 07:18:38;;;;;;;1.60;1.50;;;;;;;11.42;85.25;97032.88;5003499;28;20212;-72
2021/05/16 07:21:06;;;;;;;2.07;1.60;;;;;;;11.54;84.20;97035.84;5001667;28;20240;-75
2021/05/16 07:23:34;;;;;;;1.93;1.70;;;;;;;11.56;84.64;97033.81;5002160;28;20212;-74
2021/05/16 07:26:02;;;;;;;1.67;1.30;;;;;;;11.73;83.21;97027.16;5002635;28;20324;-73
2021/05/16 07:28:29;;;;;;;1.53;1.43;;;;;;;11.64;83.30;97028.34;5006905;28;20492;-73
2021/05/16 07:30:57;;;;;;;1.40;1.30;;;;;;;11.64;84.46;97024.88;5004350;28;20992;-75
2021/05/16 07:33:24;;;;;;;2.53;1.20;;;;;;;11.73;82.72;97024.50;5004220;28;20209;-73
2021/05/16 07:35:53;;;;;;;1.43;1.30;;;;;;;11.50;83.11;97030.09;5002975;28;20205;-71
2021/05/16 07:38:21;;;;;;;2.47;1.53;;;;;;;11.26;84.13;97032.16;5002937;28;20209;-74
2021/05/16 07:40:50;;;;;;;2.93;1.70;;;;;;;11.31;85.78;97022.81;5004328;28;20275;-73
2021/05/16 07:43:17;;;;;;;1.70;1.57;;;;;;;11.79;82.40;97020.25;5005696;28;20208;-72
2021/05/16 07:45:45;;;;;;;1.33;1.23;;;;;;;11.64;80.75;97019.56;5005473;28;20228;-71
2021/05/16 07:48:12;;;;;;;1.77;1.20;;;;;;;11.85;79.07;97019.47;5005788;28;20209;-71
2021/05/16 07:50:40;;;;;;;2.23;1.27;;;;;;;12.20;78.67;97026.63;5004335;28;20232;-73
2021/05/16 07:53:07;;;;;;;2.30;1.43;;;;;;;11.98;78.91;97015.28;5005531;28;20212;-73
2021/05/16 07:55:37;;;;;;;1.60;1.10;;;;;;;12.31;78.02;97025.22;5003086;28;20233;-73
2021/05/16 07:58:05;;;;;;;2.33;1.33;;;;;;;12.13;77.64;97015.16;5005232;28;20209;-73
2021/05/16 08:00:33;;;;;;;1.23;1.20;;;;;;;11.69;76.83;97019.81;5002420;28;20719;-72
2021/05/16 08:03:00;;;;;;;2.63;1.87;;;;;;;11.74;77.49;97017.38;5004759;28;20204;-74
2021/05/16 08:05:29;;;;;;;1.77;1.67;;;;;;;11.77;77.71;97010.88;5005200;28;20227;-75
2021/05/16 08:07:57;;;;;;;1.70;1.30;;;;;;;11.83;75.43;97012.75;5004351;28;20215;-73
2021/05/16 08:10:25;;;;;;;2.50;1.43;;;;;;;12.18;75.64;97012.72;5004721;28;20216;-73
2021/05/16 08:12:52;;;;;;;1.43;1.07;;;;;;;12.21;75.12;97015.00;5000318;28;20216;-74
2021/05/16 08:15:21;;;;;;;2.73;0.90;;;;;;;12.56;73.62;97014.91;5004491;28;20221;-73
2021/05/16 08:17:48;;;;;;;1.13;1.10;;;;;;;12.80;72.77;96990.59;5003190;28;20332;-73
2021/05/16 08:20:16;;;;;;;2.53;1.30;;;;;;;12.88;72.87;97001.03;5002437;28;20695;-73
2021/05/16 08:22:43;;;;;;;1.40;1.10;;;;;;;12.71;72.19;96998.78;5002455;28;20221;-74
2021/05/16 08:25:13;;;;;;;1.07;0.90;;;;;;;13.09;69.46;97004.53;5004594;28;20205;-73
2021/05/16 08:27:41;;;;;;;1.30;1.20;;;;;;;13.18;71.25;96990.81;5004596;28;20629;-74
2021/05/16 08:30:09;;;;;;;3.13;1.20;;;;;;;13.15;69.90;96996.53;5003443;28;20209;-74
2021/05/16 08:32:38;;;;;;;0.90;0.90;;;;;;;13.06;70.78;96991.63;5000352;28;20231;-72
2021/05/16 08:35:06;;;;;;;1.20;1.10;;;;;;;12.68;71.72;96988.53;5003730;28;20240;-74
2021/05/16 08:37:33;;;;;;;1.90;1.43;;;;;;;12.78;70.27;96996.09;5002973;28;20212;-73
2021/05/16 08:40:01;;;;;;;1.90;1.77;;;;;;;11.93;74.03;96993.78;5002110;28;20685;-72
2021/05/16 08:42:31;;;;;;;1.03;1.00;;;;;;;12.21;74.48;96998.22;5004595;28;20575;-74
2021/05/16 08:44:59;;;;;;;3.33;1.13;;;;;;;12.20;74.22;96991.28;5002024;28;20212;-73
2021/05/16 08:47:28;;;;;;;2.07;0.83;;;;;;;12.58;73.84;96996.06;5006280;28;20205;-74
2021/05/16 08:49:56;;;;;;;1.33;0.90;;;;;;;12.84;69.28;97002.47;5008426;28;20304;-74
2021/05/16 08:52:23;;;;;;;1.30;1.13;;;;;;;12.73;70.07;96988.75;5003299;28;20701;-73
2021/05/16 08:54:57;;;;;;;3.43;1.60;;;;;;;12.71;69.55;96989.97;5002388;28;20803;-71
2021/05/16 08:57:37;;;;;;;2.40;1.50;;;;;;;12.73;68.79;96988.75;5006688;28;20204;-74
2021/05/16 09:00:16;;;;;;;2.93;1.30;;;;;;;12.85;68.11;96996.94;5005145;28;20641;-74
2021/05/16 09:03:08;;;;;;;1.53;1.43;;;;;;;12.56;69.65;96985.66;5005692;28;20229;-74
2021/05/16 09:05:39;;;;;;;2.33;1.00;;;;;;;12.54;67.62;96987.69;4995354;28;20205;-72
2021/05/16 09:08:11;;;;;;;1.37;1.27;;;;;;;12.61;66.50;96995.66;5007093;28;20212;-74
2021/05/16 09:10:40;;;;;;;1.23;1.13;;;;;;;12.93;66.99;96990.59;5003933;28;20211;-74
2021/05/16 09:13:14;;;;;;;1.70;1.20;;;;;;;13.15;65.39;96998.41;5005517;28;20217;-73
2021/05/16 09:15:41;;;;;;;2.50;1.03;;;;;;;12.93;64.62;96997.78;5002255;28;20251;-73
2021/05/16 09:18:09;;;;;;;3.00;1.33;;;;;;;13.06;65.00;96989.78;5004114;28;20235;-74
2021/05/16 09:20:37;;;;;;;2.40;1.37;;;;;;;12.92;64.50;97001.47;5001561;28;20755;-74
2021/05/16 09:23:08;;;;;;;2.13;1.00;;;;;;;13.04;65.39;96999.81;5004868;28;20208;-74
2021/05/16 09:25:36;;;;;;;1.30;1.10;;;;;;;13.13;63.54;97005.75;5003948;28;20259;-74
2021/05/16 09:28:13;;;;;;;1.17;1.07;;;;;;;13.07;63.56;97007.38;5005599;28;20217;-74
2021/05/16 09:30:41;;;;;;;0.97;0.87;;;;;;;12.92;63.86;97004.91;5010108;28;20208;-74
2021/05/16 09:33:12;;;;;;;2.47;1.00;;;;;;;12.94;65.98;97010.06;5004277;28;20215;-74
2021/05/16 09:35:43;;;;;;;1.80;1.20;;;;;;;12.67;64.45;97016.13;5002327;28;20255;-74
2021/05/16 09:38:17;;;;;;;0.60;0.60;;;;;;;12.63;65.61;97022.06;5001633;28;20216;-69
2021/05/16 09:40:46;;;;;;;4.90;1.37;;;;;;;12.73;64.56;97015.34;5001790;28;20582;-74
2021/05/16 09:43:16;;;;;;;2.90;1.17;;;;;;;12.24;70.56;97014.59;5001043;28;20204;-72
2021/05/16 09:45:56;;;;;;;1.30;1.00;;;;;;;11.95;73.11;97007.69;5003263;28;20208;-74
2021/05/16 09:48:29;;;;;;;2.30;1.20;;;;;;;12.11;74.88;96991.44;5000637;28;20207;-74
2021/05/16 09:51:09;;;;;;;1.13;1.10;;;;;;;12.95;70.51;96988.56;5002702;28;20224;-72
2021/05/16 09:53:56;;;;;;;1.43;1.07;;;;;;;13.01;69.46;96985.06;5000042;28;20208;-76
2021/05/16 09:56:25;;;;;;;1.37;1.07;;;;;;;13.49;68.48;96982.41;5002682;28;20738;-71
2021/05/16 09:58:54;;;;;;;2.07;1.20;;;;;;;13.62;66.46;96973.59;5001137;28;20666;-70
2021/05/16 10:01:22;;;;;;;1.70;0.83;;;;;;;13.94;65.49;96974.50;5001480;28;20237;-69
2021/05/16 10:03:50;;;;;;;2.67;1.23;;;;;;;13.72;65.99;96982.78;5000202;28;20688;-70
2021/05/16 10:06:20;;;;;;;2.53;0.97;;;;;;;13.68;63.88;96978.91;5001864;28;20197;-71
2021/05/16 10:08:48;;;;;;;1.60;0.93;;;;;;;13.60;62.62;96974.63;5003235;28;20216;-69
2021/05/16 10:11:18;;;;;;;3.03;0.90;;;;;;;13.75;63.78;96963.72;5003738;28;20624;-68
2021/05/16 10:13:56;;;;;;;1.30;1.30;;;;;;;13.88;61.79;96962.88;5004386;28;20300;-70
2021/05/16 10:16:24;;;;;;;2.70;1.00;;;;;;;13.72;61.73;96952.66;5004807;28;20720;-69
2021/05/16 10:18:53;;;;;;;1.73;0.80;;;;;;;14.02;62.91;96960.16;5005793;28;20205;-69
2021/05/16 10:21:24;;;;;;;1.20;0.93;;;;;;;14.14;60.14;96955.78;5000860;28;20221;-69
2021/05/16 10:24:08;;;;;;;2.83;1.43;;;;;;;13.99;56.44;96963.22;4999699;28;20205;-69
2021/05/16 10:26:36;;;;;;;1.47;0.90;;;;;;;14.03;56.59;96953.78;5002345;28;20754;-70
2021/05/16 10:29:06;;;;;;;1.50;0.90;;;;;;;14.28;53.90;96947.72;5002734;28;20216;-69
2021/05/16 10:31:49;;;;;;;0.97;0.97;;;;;;;14.51;52.91;96938.34;5001303;28;20237;-69
2021/05/16 10:34:44;;;;;;;1.93;1.10;;;;;;;15.02;52.40;96940.06;5002280;28;20208;-70
2021/05/16 10:37:35;;;;;;;2.87;1.27;;;;;;;15.09;52.72;96928.53;5002431;28;20216;-69
2021/05/16 10:40:04;;;;;;;1.37;1.17;;;;;;;15.31;50.23;96943.06;5000844;28;20216;-68
2021/05/16 10:42:37;;;;;;;2.00;1.03;;;;;;;15.45;49.09;96934.94;5001851;28;20236;-69
2021/05/16 10:45:08;;;;;;;4.00;1.10;;;;;;;15.98;49.84;96935.41;5001888;28;20231;-69
2021/05/16 10:47:54;;;;;;;1.80;1.30;;;;;;;17.15;44.74;96921.78;5001919;28;20215;-70
2021/05/16 10:50:34;;;;;;;2.33;1.20;;;;;;;17.20;45.00;96921.88;5000650;28;20696;-70
2021/05/16 10:53:04;;;;;;;3.97;1.70;;;;;;;17.47;43.53;96913.38;5001641;28;20205;-69
2021/05/16 10:55:33;;;;;;;2.47;1.63;;;;;;;16.60;45.97;96929.81;5000102;28;20368;-68
2021/05/16 10:58:02;;;;;;;2.97;1.80;;;;;;;15.49;50.01;96930.78;5002174;28;20688;-70
2021/05/16 11:00:31;;;;;;;2.10;1.80;;;;;;;14.41;59.22;96941.50;5000789;28;20681;-69
2021/05/16 11:03:04;;;;;;;2.37;1.33;;;;;;;12.28;86.67;96975.16;5003366;28;20208;-70
2021/05/16 11:05:59;;;;;;;1.40;1.27;;;;;;;10.97;94.20;96978.28;5005489;28;20204;-70
2021/05/16 11:09:10;;;;;;;2.93;1.50;;;;;;;10.96;98.00;96979.31;5003690;28;20208;-70
2021/05/16 11:11:41;;;;;;;2.17;1.20;;;;;;;10.56;96.99;96971.00;5003849;28;20220;-71
2021/05/16 11:14:16;;;;;;;1.87;1.10;;;;;;;10.69;95.42;96979.06;5004923;28;20209;-70
2021/05/16 11:16:46;;;;;;;2.30;1.00;;;;;;;10.68;92.44;96969.47;5004928;28;20228;-70
2021/05/16 11:19:13;;;;;;;1.43;1.33;;;;;;;11.00;94.60;96962.00;5003893;28;20220;-71
2021/05/16 11:21:41;;;;;;;1.57;1.27;;;;;;;11.37;92.64;96963.69;5001922;28;20320;-70
2021/05/16 11:24:09;;;;;;;1.83;1.23;;;;;;;11.58;89.41;96968.94;5004435;28;20213;-71
2021/05/16 11:26:36;;;;;;;1.17;1.13;;;;;;;12.30;85.32;96957.16;5004575;28;20208;-70
2021/05/16 11:29:05;;;;;;;1.90;1.27;;;;;;;13.30;84.10;96950.28;5004488;28;20713;-70
2021/05/16 11:31:34;;;;;;;1.67;1.33;;;;;;;13.91;80.62;96937.66;5003370;28;20765;-69
2021/05/16 11:34:04;;;;;;;1.03;0.90;;;;;;;14.12;76.65;96930.41;5004774;28;20201;-71
2021/05/16 11:36:34;;;;;;;5.00;4.60;;;;;;;14.24;73.80;96930.53;5003286;28;20340;-70
2021/05/16 11:39:04;;;;;;;3.60;2.57;;;;;;;15.19;74.25;96927.00;5002278;28;20745;-70
2021/05/16 11:41:34;;;;;;;5.90;5.30;;;;;;;15.27;71.15;96909.84;5002311;28;20224;-71
2021/05/16 11:44:04;;;;;;;2.40;1.27;;;;;;;15.48;70.12;96913.94;5008910;28;20549;-71